Time;durP1;ratioP1;P1;durP2;ratioP2;P2;SDS_P1;SDS_P2;PMS_P1;PMS_P2;Temp;Humidity;BMP_temperature;BMP_pressure;BME280_temperature;BME280_humidity;BME280_pressure;Samples;Min_cycle;Max_cycle;Signal;HPM_P1;HPM_P2
2022/07/08 00:00:53;;;;;;;2.83;2.10;;;;;;;12.94;100.00;97823.84;4982056;28;20230;-64
2022/07/08 00:03:21;;;;;;;1.70;1.60;;;;;;;12.87;100.00;97821.88;4968496;28;20585;-62
2022/07/08 00:05:51;;;;;;;2.47;2.00;;;;;;;12.77;100.00;97816.00;4984301;28;20558;-64
2022/07/08 00:08:19;;;;;;;5.47;1.97;;;;;;;12.74;100.00;97813.72;4988356;28;20321;-62
2022/07/08 00:10:50;;;;;;;2.07;1.90;;;;;;;12.67;100.00;97818.94;4984554;28;20205;-63
2022/07/08 00:13:18;;;;;;;3.67;2.27;;;;;;;12.62;100.00;97804.56;4946407;28;20283;-64
2022/07/08 00:15:47;;;;;;;3.80;2.30;;;;;;;12.52;100.00;97820.75;4983815;28;20654;-64
2022/07/08 00:18:15;;;;;;;4.23;2.30;;;;;;;12.42;100.00;97819.19;4971095;28;20233;-62
2022/07/08 00:20:44;;;;;;;6.03;2.50;;;;;;;12.36;100.00;97817.25;4986010;28;20225;-65
2022/07/08 00:23:13;;;;;;;5.30;3.00;;;;;;;12.35;100.00;97814.75;4976123;28;20220;-63
2022/07/08 00:25:41;;;;;;;8.50;2.43;;;;;;;12.22;100.00;97821.53;4987766;28;20202;-64
2022/07/08 00:28:10;;;;;;;1.97;1.87;;;;;;;12.20;100.00;97826.19;4941656;28;20970;-61
2022/07/08 00:30:57;;;;;;;5.27;2.23;;;;;;;12.15;100.00;97829.38;4973190;28;20296;-66
2022/07/08 00:33:25;;;;;;;2.70;2.00;;;;;;;12.14;100.00;97821.59;4961404;28;21219;-60
2022/07/08 00:35:53;;;;;;;2.83;2.33;;;;;;;12.11;100.00;97825.41;4984213;28;20670;-67
2022/07/08 00:38:22;;;;;;;3.37;2.10;;;;;;;12.09;100.00;97832.75;4986565;28;20445;-65
2022/07/08 00:40:51;;;;;;;5.10;2.40;;;;;;;12.06;100.00;97843.72;4978324;28;20366;-65
2022/07/08 00:43:26;;;;;;;3.47;2.57;;;;;;;11.96;100.00;97846.56;4988245;28;20221;-65
2022/07/08 00:45:55;;;;;;;4.87;2.50;;;;;;;11.85;100.00;97852.28;4945503;28;20208;-64
2022/07/08 00:48:23;;;;;;;5.13;2.50;;;;;;;11.78;100.00;97854.00;4970390;28;20225;-65
2022/07/08 00:50:51;;;;;;;6.17;2.60;;;;;;;11.57;100.00;97850.97;4967307;28;20213;-62
2022/07/08 00:53:20;;;;;;;4.10;2.53;;;;;;;11.48;100.00;97865.25;4984484;28;20213;-63
2022/07/08 00:55:49;;;;;;;4.10;2.43;;;;;;;11.36;100.00;97866.63;4984183;28;20201;-62
2022/07/08 00:58:18;;;;;;;4.27;2.73;;;;;;;11.25;100.00;97862.53;4988862;28;20273;-65
2022/07/08 01:00:46;;;;;;;6.40;2.60;;;;;;;11.14;100.00;97864.56;4944622;28;20225;-68
2022/07/08 01:03:15;;;;;;;4.13;2.47;;;;;;;11.07;100.00;97858.28;4981532;28;20622;-65
2022/07/08 01:05:43;;;;;;;3.50;2.87;;;;;;;10.99;100.00;97864.44;4965542;28;20217;-67
2022/07/08 01:08:11;;;;;;;2.87;2.53;;;;;;;10.93;100.00;97862.47;4987593;28;20224;-63
2022/07/08 01:10:40;;;;;;;3.60;2.77;;;;;;;10.86;100.00;97864.97;4983946;28;20209;-67
2022/07/08 01:13:10;;;;;;;3.90;2.97;;;;;;;10.80;100.00;97870.94;4987740;28;20263;-65
2022/07/08 01:15:39;;;;;;;4.40;2.87;;;;;;;10.75;100.00;97867.13;4964827;28;20751;-65
2022/07/08 01:18:07;;;;;;;4.00;2.87;;;;;;;10.70;100.00;97873.75;4970950;28;20639;-60
2022/07/08 01:20:40;;;;;;;6.13;3.50;;;;;;;10.68;100.00;97873.09;4965586;28;20229;-66
2022/07/08 01:23:08;;;;;;;5.37;3.17;;;;;;;10.65;100.00;97867.34;4986774;28;20193;-63
2022/07/08 01:25:36;;;;;;;2.40;2.03;;;;;;;10.59;100.00;97866.16;4987117;28;20216;-69
2022/07/08 01:28:05;;;;;;;9.37;2.90;;;;;;;10.55;100.00;97872.81;4987255;28;20224;-63
2022/07/08 01:30:33;;;;;;;6.07;2.93;;;;;;;10.53;100.00;97874.78;4984673;28;20212;-68
2022/07/08 01:33:01;;;;;;;4.57;2.77;;;;;;;10.45;100.00;97877.44;4938739;28;20220;-64
2022/07/08 01:35:29;;;;;;;4.67;4.03;;;;;;;10.39;100.00;97881.56;4986256;28;20617;-62
2022/07/08 01:37:59;;;;;;;5.93;3.67;;;;;;;10.33;100.00;97877.72;4965903;28;20393;-65
2022/07/08 01:40:27;;;;;;;5.07;3.00;;;;;;;10.28;100.00;97883.53;4986083;28;20216;-63
2022/07/08 01:42:55;;;;;;;4.47;3.00;;;;;;;10.29;100.00;97894.94;4981980;28;20222;-64
2022/07/08 01:45:23;;;;;;;3.20;2.50;;;;;;;10.20;100.00;97894.09;4987327;28;20536;-65
2022/07/08 01:47:51;;;;;;;5.73;2.97;;;;;;;10.12;100.00;97900.25;4931813;28;21054;-65
2022/07/08 01:50:20;;;;;;;4.47;2.83;;;;;;;10.10;100.00;97909.31;4984376;28;20212;-63
2022/07/08 01:52:48;;;;;;;4.67;2.50;;;;;;;10.07;100.00;97901.72;4964629;28;20219;-62
2022/07/08 01:55:18;;;;;;;5.20;3.10;;;;;;;10.05;100.00;97909.00;4982351;28;20205;-65
2022/07/08 01:57:46;;;;;;;5.30;3.00;;;;;;;9.97;100.00;97901.84;4984927;28;20310;-65
2022/07/08 02:00:15;;;;;;;5.60;3.20;;;;;;;9.90;100.00;97908.78;4984939;28;20325;-64
2022/07/08 02:02:47;;;;;;;3.63;3.03;;;;;;;9.88;100.00;97916.06;4945920;28;20322;-67
2022/07/08 02:05:15;;;;;;;4.27;2.53;;;;;;;9.87;100.00;97911.75;4980681;28;20316;-64
2022/07/08 02:07:43;;;;;;;3.37;3.00;;;;;;;9.80;100.00;97919.50;4968693;28;20222;-68
2022/07/08 02:10:12;;;;;;;4.87;3.00;;;;;;;9.75;100.00;97927.09;4982296;28;20208;-63
2022/07/08 02:12:40;;;;;;;10.30;3.73;;;;;;;9.69;100.00;97929.41;4983179;28;20559;-64
2022/07/08 02:15:09;;;;;;;3.13;2.90;;;;;;;9.67;100.00;97933.22;4987956;28;20264;-58
2022/07/08 02:17:40;;;;;;;6.17;3.03;;;;;;;9.64;100.00;97934.34;4985207;28;20371;-67
2022/07/08 02:20:11;;;;;;;5.93;2.67;;;;;;;9.60;100.00;97933.00;4938061;28;20228;-62
2022/07/08 02:22:40;;;;;;;4.90;3.50;;;;;;;9.61;100.00;97926.72;4971269;28;20677;-66
2022/07/08 02:25:09;;;;;;;3.87;3.23;;;;;;;9.56;100.00;97927.19;4977835;28;20213;-64
2022/07/08 02:27:37;;;;;;;4.97;2.80;;;;;;;9.49;100.00;97925.38;4983610;28;20225;-66
2022/07/08 02:30:09;;;;;;;4.63;2.93;;;;;;;9.48;100.00;97926.34;4988860;28;20438;-63
2022/07/08 02:32:37;;;;;;;3.53;2.50;;;;;;;9.46;100.00;97926.50;4984402;28;20894;-62
2022/07/08 02:35:06;;;;;;;6.73;3.77;;;;;;;9.43;100.00;97920.69;4939091;28;20513;-64
2022/07/08 02:37:34;;;;;;;4.83;2.90;;;;;;;9.34;100.00;97925.94;4960208;28;20559;-60
2022/07/08 02:40:03;;;;;;;3.07;2.83;;;;;;;9.29;100.00;97924.78;4972521;28;20520;-65
2022/07/08 02:42:31;;;;;;;6.70;3.43;;;;;;;9.22;100.00;97922.75;4985982;28;21569;-67
2022/07/08 02:45:00;;;;;;;3.47;3.17;;;;;;;9.20;100.00;97937.94;4987642;28;20209;-61
2022/07/08 02:47:29;;;;;;;5.60;3.28;;;;;;;9.15;100.00;97928.84;4985100;28;21116;-63
2022/07/08 02:49:57;;;;;;;3.47;3.20;;;;;;;9.07;100.00;97937.53;4934897;28;20224;-63
2022/07/08 02:52:25;;;;;;;5.80;2.80;;;;;;;9.03;100.00;97947.56;4985759;28;20887;-59
2022/07/08 02:54:54;;;;;;;4.30;3.23;;;;;;;8.96;100.00;97936.81;4972083;28;20629;-62
2022/07/08 02:57:22;;;;;;;7.87;3.43;;;;;;;8.93;100.00;97942.41;4984596;28;20934;-60
2022/07/08 02:59:50;;;;;;;4.00;3.23;;;;;;;8.92;100.00;97938.13;4985881;28;20280;-62
2022/07/08 03:02:18;;;;;;;3.53;3.23;;;;;;;8.90;100.00;97950.66;4987285;28;20681;-64
2022/07/08 03:04:48;;;;;;;5.60;3.70;;;;;;;8.86;100.00;97946.63;4991596;28;20235;-65
2022/07/08 03:07:16;;;;;;;4.47;3.53;;;;;;;8.81;100.00;97951.56;4939499;28;20312;-62
2022/07/08 03:09:44;;;;;;;3.17;2.97;;;;;;;8.74;100.00;97958.44;4969983;28;20216;-60
2022/07/08 03:12:12;;;;;;;4.60;3.47;;;;;;;8.71;100.00;97956.91;4984717;28;20806;-62
2022/07/08 03:14:41;;;;;;;3.23;2.70;;;;;;;8.64;100.00;97954.09;4989603;28;20202;-64
2022/07/08 03:17:09;;;;;;;3.40;3.10;;;;;;;8.62;100.00;97960.50;4984581;28;20239;-63
2022/07/08 03:19:37;;;;;;;2.97;2.77;;;;;;;8.59;100.00;97964.28;4988501;28;20728;-62
2022/07/08 03:22:07;;;;;;;4.47;2.90;;;;;;;8.58;100.00;97959.97;4939667;28;20225;-62
2022/07/08 03:24:35;;;;;;;5.53;3.30;;;;;;;8.53;100.00;97971.00;4986392;28;20194;-62
2022/07/08 03:27:04;;;;;;;4.23;3.60;;;;;;;8.47;100.00;97973.38;4969004;28;20579;-63
2022/07/08 03:29:32;;;;;;;5.03;2.87;;;;;;;8.43;100.00;97972.84;4988303;28;20271;-65
2022/07/08 03:32:00;;;;;;;5.30;2.70;;;;;;;8.36;100.00;97982.38;4981089;28;20255;-60
2022/07/08 03:34:28;;;;;;;4.43;3.30;;;;;;;8.33;100.00;97978.19;4983057;28;20231;-64
2022/07/08 03:37:03;;;;;;;6.10;3.77;;;;;;;8.33;100.00;97988.75;4942189;28;20211;-63
2022/07/08 03:39:33;;;;;;;6.40;3.10;;;;;;;8.34;100.00;97984.31;4986173;28;20209;-60
2022/07/08 03:42:00;;;;;;;5.17;3.10;;;;;;;8.32;100.00;97979.19;4968563;28;20228;-60
2022/07/08 03:44:28;;;;;;;5.23;3.10;;;;;;;8.26;100.00;97983.25;4983847;28;20202;-62
2022/07/08 03:46:56;;;;;;;3.57;3.20;;;;;;;8.31;100.00;97996.00;4983323;28;20430;-64
2022/07/08 03:49:25;;;;;;;4.43;3.27;;;;;;;8.32;100.00;97996.81;4987539;28;20208;-60
2022/07/08 03:51:53;;;;;;;3.73;3.40;;;;;;;8.32;100.00;97997.66;4937878;28;21411;-66
2022/07/08 03:54:21;;;;;;;4.67;3.63;;;;;;;8.33;100.00;98001.13;4987533;28;20667;-60
2022/07/08 03:56:51;;;;;;;3.70;3.23;;;;;;;8.35;100.00;98007.09;4965641;28;20453;-60
2022/07/08 03:59:19;;;;;;;4.83;3.40;;;;;;;8.38;100.00;98012.91;4989692;28;20228;-62
2022/07/08 04:01:47;;;;;;;4.20;3.13;;;;;;;8.47;100.00;98010.34;4985518;28;20319;-58
2022/07/08 04:04:15;;;;;;;4.80;3.20;;;;;;;8.63;100.00;98017.63;4986794;28;20654;-63
2022/07/08 04:06:44;;;;;;;4.80;3.00;;;;;;;8.76;100.00;98019.88;4980361;28;20843;-63
2022/07/08 04:09:12;;;;;;;3.70;3.27;;;;;;;8.87;100.00;98017.00;4934913;28;20225;-60
2022/07/08 04:11:41;;;;;;;4.07;3.00;;;;;;;9.00;100.00;98021.09;4965526;28;20216;-64
2022/07/08 04:14:11;;;;;;;7.47;3.17;;;;;;;9.09;100.00;98017.50;4965600;28;20744;-61
2022/07/08 04:16:39;;;;;;;5.07;3.13;;;;;;;9.19;100.00;98020.06;4957993;28;20434;-62
2022/07/08 04:19:07;;;;;;;4.10;3.00;;;;;;;9.30;100.00;98027.75;4988437;28;20217;-58
2022/07/08 04:21:36;;;;;;;5.83;3.20;;;;;;;9.44;100.00;98028.16;4987215;28;20441;-64
2022/07/08 04:24:04;;;;;;;6.47;3.70;;;;;;;9.50;100.00;98031.00;4938226;28;20236;-65
2022/07/08 04:26:32;;;;;;;6.53;4.37;;;;;;;9.61;100.00;98027.28;4983522;28;20505;-62
2022/07/08 04:29:01;;;;;;;3.63;3.07;;;;;;;9.78;100.00;98016.75;4969743;28;20237;-64
2022/07/08 04:31:31;;;;;;;3.37;3.13;;;;;;;9.93;100.00;98019.63;4942168;28;20561;-63
2022/07/08 04:33:59;;;;;;;6.37;3.23;;;;;;;10.07;100.00;98027.00;4981617;28;20201;-62
2022/07/08 04:36:27;;;;;;;5.03;3.23;;;;;;;10.20;100.00;98025.69;4971219;28;20619;-63
2022/07/08 04:38:55;;;;;;;3.00;2.70;;;;;;;10.32;100.00;98035.00;4944139;28;20245;-62
2022/07/08 04:41:24;;;;;;;3.80;3.00;;;;;;;10.57;100.00;98027.97;4983424;28;20305;-62
2022/07/08 04:43:52;;;;;;;4.57;2.57;;;;;;;10.78;100.00;98036.44;4985693;28;20227;-63
2022/07/08 04:46:20;;;;;;;7.47;2.83;;;;;;;10.85;100.00;98029.50;4955258;28;20205;-67
2022/07/08 04:48:50;;;;;;;7.97;3.27;;;;;;;10.95;100.00;98042.59;4987209;28;20315;-65
2022/07/08 04:51:18;;;;;;;4.37;2.73;;;;;;;11.04;100.00;98043.41;4984796;28;20263;-66
2022/07/08 04:53:46;;;;;;;7.43;3.37;;;;;;;11.22;100.00;98046.75;4981452;28;20213;-64
2022/07/08 04:56:15;;;;;;;2.87;2.60;;;;;;;11.26;100.00;98050.72;4938165;28;20553;-69
2022/07/08 04:58:43;;;;;;;4.97;2.60;;;;;;;11.24;100.00;98049.22;4984061;28;20397;-66
2022/07/08 05:01:13;;;;;;;4.30;2.90;;;;;;;11.24;100.00;98057.19;4965567;28;20252;-63
2022/07/08 05:03:42;;;;;;;7.40;2.90;;;;;;;11.18;100.00;98063.16;4966719;28;20625;-64
2022/07/08 05:06:12;;;;;;;3.97;2.60;;;;;;;11.29;100.00;98060.16;4982971;28;20204;-66
2022/07/08 05:08:40;;;;;;;4.20;2.60;;;;;;;11.42;100.00;98047.22;4986818;28;20295;-65
2022/07/08 05:11:12;;;;;;;5.30;2.53;;;;;;;11.50;100.00;98051.66;4940390;28;20224;-66
2022/07/08 05:13:41;;;;;;;5.53;2.90;;;;;;;11.67;100.00;98049.81;4983272;28;20393;-67
2022/07/08 05:16:09;;;;;;;3.80;2.70;;;;;;;11.71;100.00;98051.13;4983907;28;20216;-64
2022/07/08 05:18:39;;;;;;;6.10;2.70;;;;;;;11.83;100.00;98054.25;4954490;28;22600;-65
2022/07/08 05:21:08;;;;;;;6.20;2.50;;;;;;;12.00;100.00;98063.03;4984668;28;20216;-65
2022/07/08 05:23:37;;;;;;;8.00;2.87;;;;;;;12.11;100.00;98056.50;4982609;28;20251;-66
2022/07/08 05:26:06;;;;;;;3.07;2.40;;;;;;;12.06;100.00;98063.34;4941533;28;20225;-63
2022/07/08 05:28:34;;;;;;;3.57;2.43;;;;;;;12.10;100.00;98061.97;4982228;28;20334;-65
2022/07/08 05:31:02;;;;;;;6.37;2.47;;;;;;;12.18;100.00;98059.31;4984083;28;20206;-67
2022/07/08 05:33:31;;;;;;;5.30;2.37;;;;;;;12.41;100.00;98069.16;4949834;28;20347;-65
2022/07/08 05:35:59;;;;;;;2.97;2.07;;;;;;;12.62;100.00;98065.88;4984709;28;20201;-66
2022/07/08 05:38:27;;;;;;;5.37;2.30;;;;;;;12.80;100.00;98078.91;4982145;28;20581;-67
2022/07/08 05:40:58;;;;;;;3.97;1.90;;;;;;;12.83;100.00;98075.88;4942392;28;20224;-65
2022/07/08 05:43:26;;;;;;;2.80;2.00;;;;;;;12.75;100.00;98078.59;4978801;28;20430;-65
2022/07/08 05:45:54;;;;;;;3.53;2.57;;;;;;;12.56;100.00;98082.53;4985377;28;20213;-65
2022/07/08 05:48:23;;;;;;;4.33;2.33;;;;;;;12.40;100.00;98094.09;4964759;28;20233;-63
2022/07/08 05:50:51;;;;;;;2.20;1.80;;;;;;;12.34;100.00;98094.78;4968151;28;21513;-65
2022/07/08 05:53:19;;;;;;;5.13;2.43;;;;;;;12.24;100.00;98090.50;4984569;28;20225;-65
2022/07/08 05:55:48;;;;;;;2.03;1.90;;;;;;;12.16;100.00;98104.63;4984932;28;20228;-65
2022/07/08 05:58:17;;;;;;;4.17;2.50;;;;;;;11.99;100.00;98103.84;4938455;28;20898;-65
2022/07/08 06:00:46;;;;;;;4.00;2.20;;;;;;;12.11;100.00;98103.47;4980207;28;20308;-64
2022/07/08 06:03:14;;;;;;;3.53;2.60;;;;;;;12.25;100.00;98108.09;4970614;28;20232;-64
2022/07/08 06:05:43;;;;;;;4.30;2.20;;;;;;;12.42;100.00;98102.72;4966749;28;20955;-67
2022/07/08 06:08:11;;;;;;;4.10;2.43;;;;;;;12.51;100.00;98100.84;4984583;28;20221;-66
2022/07/08 06:10:39;;;;;;;2.70;2.17;;;;;;;12.58;100.00;98112.44;4985658;28;20426;-65
2022/07/08 06:13:07;;;;;;;5.03;2.10;;;;;;;12.77;100.00;98103.19;4943360;28;20882;-65
2022/07/08 06:15:37;;;;;;;4.67;2.50;;;;;;;12.72;100.00;98097.56;4982458;28;20520;-64
2022/07/08 06:18:05;;;;;;;4.57;1.97;;;;;;;12.80;100.00;98104.69;4977315;28;20717;-66
2022/07/08 06:20:33;;;;;;;5.43;2.50;;;;;;;12.83;100.00;98110.47;4971757;28;20213;-64
2022/07/08 06:23:02;;;;;;;4.27;2.17;;;;;;;12.90;100.00;98110.59;4991171;28;20205;-63
2022/07/08 06:25:30;;;;;;;5.63;2.60;;;;;;;12.74;100.00;98115.03;4987014;28;20729;-66
2022/07/08 06:27:58;;;;;;;2.43;2.20;;;;;;;13.06;100.00;98114.97;4945213;28;20608;-65
2022/07/08 06:30:26;;;;;;;5.20;2.43;;;;;;;13.31;100.00;98125.47;4983882;28;20214;-63
2022/07/08 06:32:58;;;;;;;3.73;2.00;;;;;;;13.34;100.00;98129.56;4973325;28;20295;-66
2022/07/08 06:35:26;;;;;;;2.93;1.73;;;;;;;13.39;100.00;98130.72;4983552;28;20252;-64
2022/07/08 06:37:55;;;;;;;8.67;3.90;;;;;;;13.62;100.00;98126.41;4974124;28;20478;-66
2022/07/08 06:40:23;;;;;;;6.90;2.30;;;;;;;13.87;100.00;98138.47;4982453;28;20213;-62
2022/07/08 06:42:51;;;;;;;3.40;2.07;;;;;;;13.78;100.00;98122.75;4985698;28;20201;-67
2022/07/08 06:45:19;;;;;;;6.73;2.00;;;;;;;13.86;100.00;98136.81;4940742;28;21119;-64
2022/07/08 06:47:47;;;;;;;3.07;1.83;;;;;;;13.87;100.00;98143.81;4982507;28;20221;-66
2022/07/08 06:50:17;;;;;;;3.13;2.10;;;;;;;13.96;100.00;98143.72;4978635;28;20244;-66
2022/07/08 06:52:45;;;;;;;2.43;1.83;;;;;;;14.39;100.00;98141.25;4972902;28;20628;-64
2022/07/08 06:55:13;;;;;;;10.53;2.50;;;;;;;15.19;100.00;98146.72;4988432;28;20713;-66
2022/07/08 06:57:42;;;;;;;3.43;1.73;;;;;;;15.57;100.00;98144.81;4986394;28;20248;-65
2022/07/08 07:00:11;;;;;;;4.77;1.93;;;;;;;15.82;100.00;98142.53;4945550;28;20216;-64
2022/07/08 07:02:48;;;;;;;3.63;1.93;;;;;;;15.53;100.00;98140.84;4979698;28;20717;-65
2022/07/08 07:05:19;;;;;;;2.13;1.90;;;;;;;15.30;100.00;98139.22;4981256;28;20956;-64
2022/07/08 07:07:47;;;;;;;4.23;2.13;;;;;;;14.43;100.00;98137.19;4971917;28;20235;-63
2022/07/08 07:10:15;;;;;;;4.63;1.83;;;;;;;14.39;100.00;98143.06;4987196;28;20228;-66
2022/07/08 07:12:43;;;;;;;2.07;1.87;;;;;;;14.48;100.00;98131.31;4984537;28;20306;-65
2022/07/08 07:15:12;;;;;;;3.23;2.13;;;;;;;14.56;100.00;98141.88;4944539;28;20683;-66
2022/07/08 07:17:42;;;;;;;4.00;1.70;;;;;;;14.75;100.00;98129.81;4984104;28;20237;-64
2022/07/08 07:20:11;;;;;;;5.63;2.43;;;;;;;14.74;100.00;98122.00;4970060;28;20426;-66
2022/07/08 07:22:41;;;;;;;5.57;3.03;;;;;;;14.75;100.00;98128.97;4983986;28;20209;-64
2022/07/08 07:25:10;;;;;;;5.47;4.10;;;;;;;15.09;100.00;98134.69;4968866;28;20255;-64
2022/07/08 07:27:41;;;;;;;5.93;5.03;;;;;;;15.16;100.00;98130.25;4989835;28;20304;-66
2022/07/08 07:30:10;;;;;;;7.07;5.47;;;;;;;15.29;100.00;98137.56;4941121;28;20830;-67
2022/07/08 07:32:38;;;;;;;6.63;3.80;;;;;;;15.49;100.00;98132.41;4983796;28;20201;-68
2022/07/08 07:35:07;;;;;;;4.07;3.20;;;;;;;15.95;100.00;98135.66;4964231;28;21539;-64
2022/07/08 07:37:37;;;;;;;4.13;3.80;;;;;;;15.85;100.00;98143.97;4986829;28;20229;-65
2022/07/08 07:40:08;;;;;;;3.63;2.27;;;;;;;15.73;100.00;98143.69;4970329;28;20221;-66
2022/07/08 07:42:36;;;;;;;5.83;3.80;;;;;;;15.78;100.00;98139.41;4988811;28;20637;-66
2022/07/08 07:45:05;;;;;;;3.90;3.60;;;;;;;15.83;100.00;98146.00;4941497;28;21593;-64
2022/07/08 07:47:33;;;;;;;3.50;2.60;;;;;;;15.42;100.00;98142.19;4985608;28;20233;-66
2022/07/08 07:50:02;;;;;;;3.20;2.50;;;;;;;15.29;100.00;98146.38;4970827;28;20255;-62
2022/07/08 07:52:30;;;;;;;4.50;3.03;;;;;;;15.63;100.00;98149.38;4981973;28;20741;-64
2022/07/08 07:54:58;;;;;;;3.83;3.43;;;;;;;15.84;100.00;98150.34;4966461;28;20228;-64
2022/07/08 07:57:35;;;;;;;3.23;2.77;;;;;;;16.17;100.00;98157.78;4987559;28;20561;-67
2022/07/08 08:00:05;;;;;;;3.53;2.00;;;;;;;16.17;100.00;98160.47;4983014;28;20645;-65
2022/07/08 08:02:33;;;;;;;5.80;2.30;;;;;;;15.99;100.00;98161.81;4942020;28;20630;-65
2022/07/08 08:05:01;;;;;;;4.63;2.20;;;;;;;15.84;100.00;98155.69;4981674;28;20560;-64
2022/07/08 08:07:29;;;;;;;3.20;2.43;;;;;;;15.93;100.00;98167.09;4970347;28;20237;-68
2022/07/08 08:09:57;;;;;;;2.60;1.87;;;;;;;15.65;100.00;98154.50;4968851;28;20202;-68
2022/07/08 08:12:26;;;;;;;3.20;2.90;;;;;;;15.55;100.00;98161.00;4986235;28;20220;-63
2022/07/08 08:14:55;;;;;;;3.73;1.87;;;;;;;15.14;100.00;98156.31;4983555;28;20221;-65
2022/07/08 08:17:24;;;;;;;2.30;2.00;;;;;;;15.19;100.00;98169.91;4943508;28;20574;-66
2022/07/08 08:19:52;;;;;;;3.27;1.60;;;;;;;15.18;100.00;98166.41;4980871;28;20209;-66
2022/07/08 08:22:20;;;;;;;2.57;1.80;;;;;;;15.10;100.00;98168.38;4969279;28;20300;-67
2022/07/08 08:24:49;;;;;;;2.53;2.27;;;;;;;14.86;100.00;98159.69;4975161;28;20275;-68
2022/07/08 08:27:17;;;;;;;2.00;1.90;;;;;;;14.80;100.00;98177.28;4976270;28;20422;-64
2022/07/08 08:29:45;;;;;;;2.20;1.50;;;;;;;14.37;100.00;98171.75;4985685;28;20665;-66
2022/07/08 08:32:14;;;;;;;4.40;2.53;;;;;;;14.19;100.00;98175.63;4943092;28;20690;-68
2022/07/08 08:34:43;;;;;;;4.43;2.33;;;;;;;14.32;100.00;98175.00;4984093;28;20197;-64
2022/07/08 08:37:11;;;;;;;3.63;2.10;;;;;;;14.54;100.00;98169.72;4970490;28;20358;-64
2022/07/08 08:39:39;;;;;;;6.20;2.63;;;;;;;15.01;100.00;98170.31;4983760;28;20689;-62
2022/07/08 08:42:08;;;;;;;4.00;2.27;;;;;;;15.53;100.00;98168.38;4964246;28;20490;-64
2022/07/08 08:44:36;;;;;;;3.53;2.23;;;;;;;16.08;100.00;98172.34;4987440;28;20221;-65
2022/07/08 08:47:04;;;;;;;2.63;1.53;;;;;;;16.42;100.00;98170.69;4982654;28;20909;-64
2022/07/08 08:49:35;;;;;;;5.80;1.73;;;;;;;16.82;100.00;98170.88;4945512;28;20347;-64
2022/07/08 08:52:04;;;;;;;3.40;2.10;;;;;;;17.12;100.00;98167.91;4968022;28;20647;-67
2022/07/08 08:54:36;;;;;;;1.67;1.57;;;;;;;17.52;100.00;98174.38;4986831;28;20270;-64
2022/07/08 08:57:05;;;;;;;2.70;1.83;;;;;;;17.29;100.00;98171.06;4968481;28;20859;-65
2022/07/08 08:59:35;;;;;;;4.83;2.53;;;;;;;17.20;100.00;98173.09;4984788;28;20258;-65
2022/07/08 09:02:03;;;;;;;3.07;1.90;;;;;;;17.53;100.00;98165.31;4980615;28;20678;-64
2022/07/08 09:04:32;;;;;;;2.20;1.83;;;;;;;17.69;100.00;98169.44;4946012;28;20233;-67
2022/07/08 09:07:01;;;;;;;4.57;2.53;;;;;;;17.70;98.33;98173.78;4965833;28;20256;-64
2022/07/08 09:09:37;;;;;;;5.27;1.70;;;;;;;17.32;98.91;98178.69;4988602;28;20534;-66
2022/07/08 09:12:17;;;;;;;3.20;1.87;;;;;;;17.28;92.71;98176.59;4967180;28;21028;-64
2022/07/08 09:14:50;;;;;;;1.87;1.70;;;;;;;17.38;94.26;98179.69;4985340;28;20213;-61
2022/07/08 09:17:19;;;;;;;5.00;2.00;;;;;;;16.68;98.44;98178.03;4985736;28;20220;-64
2022/07/08 09:19:49;;;;;;;3.73;2.20;;;;;;;16.72;100.00;98181.94;4945505;28;20670;-66
2022/07/08 09:22:21;;;;;;;2.67;2.33;;;;;;;16.24;100.00;98189.94;4983102;28;20429;-63
2022/07/08 09:24:50;;;;;;;3.00;1.40;;;;;;;15.74;100.00;98190.78;4971763;28;20575;-65
2022/07/08 09:27:18;;;;;;;7.20;2.30;;;;;;;15.71;100.00;98196.47;4967419;28;20248;-65
2022/07/08 09:30:00;;;;;;;2.83;2.00;;;;;;;15.60;100.00;98190.63;4985815;28;20205;-67
2022/07/08 09:32:28;;;;;;;3.00;2.70;;;;;;;15.49;100.00;98202.66;4986753;28;20745;-66
2022/07/08 09:34:56;;;;;;;3.90;2.17;;;;;;;15.54;100.00;98201.28;4937462;28;20697;-66
2022/07/08 09:37:26;;;;;;;2.87;1.77;;;;;;;15.74;100.00;98202.25;4984176;28;20229;-66
2022/07/08 09:39:54;;;;;;;5.33;2.27;;;;;;;15.86;100.00;98205.25;4968392;28;20204;-67
2022/07/08 09:42:22;;;;;;;1.40;1.30;;;;;;;16.08;100.00;98215.91;4989050;28;20205;-66
2022/07/08 09:44:53;;;;;;;2.13;1.93;;;;;;;16.33;100.00;98218.16;4972013;28;20209;-64
2022/07/08 09:47:22;;;;;;;2.17;1.90;;;;;;;16.12;100.00;98221.72;4985600;28;20221;-64
2022/07/08 09:49:50;;;;;;;3.70;2.03;;;;;;;16.15;100.00;98221.31;4947588;28;20217;-63
2022/07/08 09:52:23;;;;;;;1.87;1.63;;;;;;;16.10;100.00;98221.09;4989005;28;20338;-63
2022/07/08 09:55:02;;;;;;;2.40;1.60;;;;;;;16.30;100.00;98219.41;4969590;28;20209;-64
2022/07/08 09:57:31;;;;;;;2.80;1.53;;;;;;;16.41;100.00;98211.84;4988404;28;20725;-60
2022/07/08 09:59:59;;;;;;;2.00;1.67;;;;;;;16.56;100.00;98212.53;4969180;28;20248;-63
2022/07/08 10:02:29;;;;;;;4.30;1.80;;;;;;;16.64;100.00;98200.84;4990020;28;20264;-64
2022/07/08 10:04:58;;;;;;;2.83;1.80;;;;;;;16.85;99.01;98204.44;4950648;28;20241;-67
2022/07/08 10:07:26;;;;;;;2.77;1.90;;;;;;;17.00;95.29;98212.34;4985807;28;20504;-65
2022/07/08 10:09:54;;;;;;;2.67;1.70;;;;;;;17.01;95.34;98198.78;4973244;28;20268;-67
2022/07/08 10:12:25;;;;;;;2.70;1.93;;;;;;;17.24;95.66;98210.16;4991645;28;20215;-66
2022/07/08 10:14:53;;;;;;;5.00;1.80;;;;;;;17.54;90.26;98207.16;4965442;28;20405;-64
2022/07/08 10:17:24;;;;;;;5.33;2.20;;;;;;;17.56;89.51;98205.09;4990365;28;20224;-64
2022/07/08 10:19:52;;;;;;;3.43;1.87;;;;;;;17.88;88.96;98189.25;4984526;28;20194;-66
2022/07/08 10:22:21;;;;;;;2.63;1.70;;;;;;;18.21;87.93;98199.16;4949976;28;20255;-65
2022/07/08 10:24:50;;;;;;;3.23;1.70;;;;;;;18.52;81.91;98211.03;4978041;28;20237;-67
2022/07/08 10:27:18;;;;;;;2.83;1.97;;;;;;;18.62;81.93;98211.44;4981606;28;20229;-64
2022/07/08 10:29:50;;;;;;;3.83;2.17;;;;;;;18.57;81.82;98203.22;4969738;28;20213;-66
2022/07/08 10:32:27;;;;;;;2.10;1.87;;;;;;;18.71;78.34;98209.34;4988420;28;20213;-66
2022/07/08 10:35:09;;;;;;;3.77;1.83;;;;;;;18.90;74.43;98198.75;4985325;28;20673;-66
2022/07/08 10:37:48;;;;;;;1.77;1.67;;;;;;;18.97;75.65;98207.59;4950610;28;20236;-67
2022/07/08 10:40:48;;;;;;;1.77;1.50;;;;;;;18.20;80.78;98205.56;4985423;28;20209;-64
2022/07/08 10:43:27;;;;;;;3.00;1.73;;;;;;;18.31;79.38;98204.91;4982692;28;20420;-64
2022/07/08 10:46:03;;;;;;;1.80;1.40;;;;;;;18.55;82.90;98215.19;4970609;28;20229;-66
2022/07/08 10:48:47;;;;;;;2.57;1.70;;;;;;;18.14;83.14;98209.03;4988762;28;20224;-63
2022/07/08 10:51:48;;;;;;;3.13;1.93;;;;;;;18.23;84.23;98213.19;4985844;28;20213;-64
2022/07/08 10:54:32;;;;;;;2.90;1.70;;;;;;;18.52;85.21;98219.94;4947242;28;20478;-66
2022/07/08 10:57:02;;;;;;;2.73;1.77;;;;;;;19.23;79.11;98220.09;4970099;28;20200;-64
2022/07/08 10:59:32;;;;;;;2.43;2.03;;;;;;;18.79;81.20;98217.19;4990100;28;20577;-65
2022/07/08 11:02:03;;;;;;;3.30;1.50;;;;;;;18.51;79.96;98210.22;4969417;28;20217;-65
2022/07/08 11:04:43;;;;;;;2.97;1.97;;;;;;;18.05;83.28;98211.94;4989167;28;20342;-66
2022/07/08 11:07:29;;;;;;;2.90;1.90;;;;;;;17.40;90.84;98214.34;4986524;28;20614;-65
2022/07/08 11:10:06;;;;;;;3.13;1.40;;;;;;;17.03;98.17;98219.97;4947531;28;20217;-66
2022/07/08 11:12:35;;;;;;;3.90;1.93;;;;;;;16.83;100.00;98207.31;4976839;28;20217;-65
2022/07/08 11:15:06;;;;;;;1.87;1.77;;;;;;;16.79;100.00;98217.59;4985208;28;20220;-69
2022/07/08 11:17:37;;;;;;;1.93;1.70;;;;;;;16.64;99.72;98206.19;4932347;28;21305;-64
2022/07/08 11:20:08;;;;;;;2.40;2.07;;;;;;;17.12;100.00;98207.25;4987233;28;20209;-65
2022/07/08 11:22:37;;;;;;;2.90;1.50;;;;;;;17.64;95.84;98203.06;4973505;28;21116;-63
2022/07/08 11:25:07;;;;;;;2.43;1.60;;;;;;;17.92;93.24;98196.66;4920774;28;20261;-65
2022/07/08 11:27:36;;;;;;;2.30;1.40;;;;;;;18.13;90.48;98202.03;4972203;28;20287;-63
2022/07/08 11:30:06;;;;;;;3.17;2.03;;;;;;;18.03;94.19;98197.09;4961755;28;20279;-65
2022/07/08 11:32:36;;;;;;;1.60;1.37;;;;;;;18.46;95.69;98202.00;4972082;28;20689;-64
2022/07/08 11:35:05;;;;;;;1.97;1.80;;;;;;;18.44;89.49;98209.44;4980398;28;20209;-62
2022/07/08 11:37:40;;;;;;;5.67;2.00;;;;;;;18.68;92.96;98217.81;4990208;28;20755;-63
2022/07/08 11:40:09;;;;;;;2.40;1.77;;;;;;;18.88;93.09;98214.25;4928164;28;20216;-64